Four Seasons, Missouri
Current Conditions -  °F | °C
As of 7:55 AM on Wednesday 26 Nov 2014 (Local Time) from KAIZ Reporting Station
Overcast Overcast  
Wind Chill: 29°   Ceiling: 2300
Heat Index: 34°   Visibility: 5mi
Dew Point: 28°   Wind: 6mph
Humidity: 81%   Direction: 200°SSW
Pressure: 29.99"   Gusts: NA
Location:  38.2106°N, 92.6582°W
Report Text: KAIZ 261355Z AUTO 20005KT 5SM OVC023 01/M02 A2999 RMK AO1 P0003
Loading
Personal Weather Stations






























Interactive Weather Map New forecast layout! Learn more

10-Day Weather Forecast

Advertisements
Track Severe Weather on mobile